Time;durP1;ratioP1;P1;durP2;ratioP2;P2;SDS_P1;SDS_P2;PMS_P1;PMS_P2;Temp;Humidity;BMP_temperature;BMP_pressure;BME280_temperature;BME280_humidity;BME280_pressure;Samples;Min_cycle;Max_cycle;Signal;HPM_P1;HPM_P2
2022/06/26 00:01:58;;;;;;;8.30;5.93;;;19.70;99.90;;;;;;5054650;28;20220;-66
2022/06/26 00:04:26;;;;;;;10.93;6.20;;;19.60;28.00;;;;;;5054482;28;20221;-66
2022/06/26 00:06:54;;;;;;;10.10;6.93;;;19.50;99.90;;;;;;5054080;28;20225;-66
2022/06/26 00:09:21;;;;;;;9.07;7.17;;;19.40;99.90;;;;;;5054669;28;20209;-66
2022/06/26 00:11:48;;;;;;;8.60;7.47;;;19.40;99.90;;;;;;5054701;28;20780;-66
2022/06/26 00:14:14;;;;;;;12.60;9.37;;;19.30;99.90;;;;;;5054272;28;20693;-66
2022/06/26 00:16:41;;;;;;;11.70;9.67;;;19.20;99.90;;;;;;5054073;28;20226;-67
2022/06/26 00:19:08;;;;;;;13.80;10.23;;;19.10;99.90;;;;;;5054081;28;20629;-66
2022/06/26 00:21:36;;;;;;;12.43;10.87;;;18.90;99.90;;;;;;5054205;28;20300;-65
2022/06/26 00:24:03;;;;;;;11.67;10.10;;;18.90;99.90;;;;;;5054403;28;20229;-65
2022/06/26 00:26:30;;;;;;;17.37;11.33;;;18.80;99.90;;;;;;5054051;28;20230;-66
2022/06/26 00:28:57;;;;;;;13.43;9.27;;;18.60;99.90;;;;;;5054241;28;20209;-65
2022/06/26 00:31:23;;;;;;;14.57;10.43;;;18.60;99.90;;;;;;5053885;28;20236;-66
2022/06/26 00:33:50;;;;;;;12.07;10.40;;;18.60;99.90;;;;;;5054000;28;20202;-66
2022/06/26 00:36:17;;;;;;;13.30;11.07;;;18.50;99.90;;;;;;5053452;28;20229;-65
2022/06/26 00:38:45;;;;;;;13.67;10.63;;;18.50;99.90;;;;;;5054259;28;20256;-66
2022/06/26 00:41:11;;;;;;;12.47;10.80;;;18.40;99.90;;;;;;5053722;28;20672;-66
2022/06/26 00:43:38;;;;;;;14.13;11.87;;;18.40;99.90;;;;;;5053889;28;20668;-66
2022/06/26 00:46:06;;;;;;;15.97;11.93;;;18.30;99.90;;;;;;5053412;28;20283;-66
2022/06/26 00:48:33;;;;;;;12.37;10.77;;;18.30;99.90;;;;;;5053716;28;20821;-67
2022/06/26 00:51:00;;;;;;;16.70;11.93;;;18.20;99.90;;;;;;5053947;28;20232;-66
2022/06/26 00:53:27;;;;;;;12.30;10.03;;;18.10;99.90;;;;;;5053754;28;20209;-66
2022/06/26 00:55:55;;;;;;;13.17;10.00;;;18.20;99.90;;;;;;5053498;28;20630;-67
2022/06/26 00:58:22;;;;;;;14.63;11.23;;;18.10;99.90;;;;;;5053425;28;20267;-66
2022/06/26 01:00:49;;;;;;;12.77;11.27;;;18.00;99.90;;;;;;5053652;28;20209;-65
2022/06/26 01:03:15;;;;;;;13.33;10.53;;;18.00;99.90;;;;;;5053282;28;20255;-64
2022/06/26 01:05:42;;;;;;;14.23;10.07;;;18.10;99.90;;;;;;5053475;28;20283;-66
2022/06/26 01:08:09;;;;;;;11.50;9.80;;;18.20;99.90;;;;;;5053123;28;20729;-66
2022/06/26 01:10:38;;;;;;;14.50;10.13;;;18.20;99.90;;;;;;5053413;28;20263;-66
2022/06/26 01:13:06;;;;;;;15.80;9.23;;;18.20;99.90;;;;;;5053368;28;20212;-67
2022/06/26 01:15:33;;;;;;;10.00;8.93;;;18.20;99.90;;;;;;5052887;28;20285;-66
2022/06/26 01:18:01;;;;;;;11.87;8.57;;;18.20;99.90;;;;;;5052837;28;20218;-65
2022/06/26 01:20:28;;;;;;;10.47;8.17;;;18.30;99.90;;;;;;5053350;28;20206;-66
2022/06/26 01:23:00;;;;;;;10.20;8.33;;;18.30;99.90;;;;;;5052648;28;20205;-65
2022/06/26 01:25:38;;;;;;;15.00;9.07;;;18.30;99.90;;;;;;5053055;28;20225;-65
2022/06/26 01:28:05;;;;;;;11.70;9.33;;;18.10;99.90;;;;;;5052668;28;20626;-66
2022/06/26 01:30:31;;;;;;;10.13;8.73;;;18.20;99.90;;;;;;5053069;28;20209;-66
2022/06/26 01:32:58;;;;;;;11.60;8.80;;;18.10;99.90;;;;;;5053055;28;20209;-65
2022/06/26 01:35:25;;;;;;;11.40;9.63;;;18.10;99.90;;;;;;5053084;28;20255;-65
2022/06/26 01:37:51;;;;;;;14.13;10.17;;;17.90;99.90;;;;;;5052497;28;20230;-66
2022/06/26 01:40:19;;;;;;;12.40;9.37;;;17.90;99.90;;;;;;5052933;28;20202;-66
2022/06/26 01:42:46;;;;;;;13.10;10.47;;;17.90;99.90;;;;;;5052511;28;20820;-67
2022/06/26 01:45:12;;;;;;;13.63;10.40;;;17.90;99.90;;;;;;5052704;28;20716;-66
2022/06/26 01:47:40;;;;;;;16.13;10.87;;;17.90;99.90;;;;;;5052091;28;20620;-66
2022/06/26 01:50:07;;;;;;;13.90;10.70;;;17.90;99.90;;;;;;5052707;28;20208;-65
2022/06/26 01:52:34;;;;;;;13.67;10.97;;;17.80;99.90;;;;;;5052838;28;20209;-66
2022/06/26 01:55:01;;;;;;;13.63;10.30;;;17.80;99.90;;;;;;5052824;28;20270;-66
2022/06/26 01:57:29;;;;;;;14.50;11.13;;;17.80;99.90;;;;;;5052070;28;20628;-66
2022/06/26 01:59:56;;;;;;;14.13;10.57;;;17.70;99.90;;;;;;5052513;28;20206;-66
2022/06/26 02:02:22;;;;;;;16.83;10.83;;;17.60;99.90;;;;;;5052655;28;20214;-66
2022/06/26 02:04:49;;;;;;;14.40;10.97;;;17.50;99.90;;;;;;5052120;28;20221;-65
2022/06/26 02:07:16;;;;;;;14.10;11.60;;;17.50;99.90;;;;;;5051992;28;20602;-66
2022/06/26 02:15:12;;;;;;;14.77;12.20;;;17.30;99.90;;;;;;5052362;28;20208;-66
2022/06/26 02:17:39;;;;;;;18.30;12.90;;;17.20;99.90;;;;;;5051808;28;20241;-67
2022/06/26 02:20:07;;;;;;;16.20;12.90;;;17.10;99.90;;;;;;5052074;28;20217;-65
2022/06/26 02:22:34;;;;;;;14.03;12.10;;;17.10;99.90;;;;;;5052421;28;20210;-66
2022/06/26 02:25:01;;;;;;;15.87;13.03;;;17.00;99.90;;;;;;5052188;28;20248;-65
2022/06/26 02:27:29;;;;;;;15.43;12.37;;;16.90;99.90;;;;;;5051550;28;20225;-66
2022/06/26 02:29:56;;;;;;;18.90;13.03;;;16.90;99.90;;;;;;5052248;28;20209;-66
2022/06/26 02:32:23;;;;;;;18.73;11.93;;;16.90;99.90;;;;;;5051768;28;20209;-66
2022/06/26 02:34:49;;;;;;;17.83;12.70;;;16.90;99.90;;;;;;5051068;28;20738;-65
2022/06/26 02:37:16;;;;;;;15.73;12.50;;;16.80;99.90;;;;;;5051232;28;20221;-66
2022/06/26 02:39:43;;;;;;;15.97;12.27;;;16.80;99.90;;;;;;5052061;28;20626;-66
2022/06/26 02:42:09;;;;;;;16.27;12.57;;;16.80;99.90;;;;;;5051749;28;20765;-66
2022/06/26 02:44:37;;;;;;;15.70;12.43;;;16.70;99.90;;;;;;5051677;28;20221;-65
2022/06/26 02:47:04;;;;;;;14.30;11.67;;;16.70;99.90;;;;;;5051185;28;20581;-66
2022/06/26 02:49:31;;;;;;;16.40;11.63;;;16.70;99.90;;;;;;5051610;28;20615;-65
2022/06/26 02:51:58;;;;;;;16.10;11.70;;;16.70;99.90;;;;;;5051886;28;20265;-65
2022/06/26 02:54:25;;;;;;;14.07;11.43;;;16.70;99.90;;;;;;5051796;28;20563;-65
2022/06/26 02:56:51;;;;;;;16.33;10.97;;;16.60;99.90;;;;;;5051400;28;20573;-66
2022/06/26 02:59:18;;;;;;;15.60;11.53;;;16.60;99.90;;;;;;5051673;28;20714;-65
2022/06/26 03:01:46;;;;;;;14.30;11.73;;;16.60;99.90;;;;;;5051321;28;20234;-66
2022/06/26 03:04:13;;;;;;;17.10;11.33;;;16.60;99.90;;;;;;5051887;28;20264;-66
2022/06/26 03:06:39;;;;;;;18.13;12.70;;;16.60;99.90;;;;;;5050785;28;20692;-66
2022/06/26 03:09:06;;;;;;;16.20;12.27;;;16.60;99.90;;;;;;5051512;28;20688;-64
2022/06/26 03:11:33;;;;;;;16.10;11.60;;;16.60;99.90;;;;;;5051441;28;20941;-65
2022/06/26 03:14:00;;;;;;;14.57;10.97;;;16.60;99.90;;;;;;5051642;28;20212;-66
2022/06/26 03:16:26;;;;;;;16.53;11.87;;;16.60;99.90;;;;;;5050610;28;20222;-65
2022/06/26 03:18:54;;;;;;;14.93;11.50;;;16.60;99.90;;;;;;5051456;28;20217;-66
2022/06/26 03:21:21;;;;;;;17.10;11.97;;;16.60;99.90;;;;;;5051606;28;20214;-66
2022/06/26 03:24:03;;;;;;;17.60;12.27;;;16.50;99.90;;;;;;5051469;28;20217;-66
2022/06/26 03:26:31;;;;;;;16.37;12.27;;;16.50;99.90;;;;;;5051039;28;20699;-66
2022/06/26 03:28:58;;;;;;;18.53;12.77;;;16.60;99.90;;;;;;5051141;28;20553;-66
2022/06/26 03:31:25;;;;;;;18.83;13.30;;;16.50;99.90;;;;;;5051601;28;20266;-64
2022/06/26 03:33:52;;;;;;;20.90;13.63;;;16.50;99.90;;;;;;5051216;28;20206;-66
2022/06/26 03:36:20;;;;;;;20.33;13.37;;;16.60;99.90;;;;;;5050906;28;20852;-66
2022/06/26 03:38:47;;;;;;;17.43;12.67;;;16.60;99.90;;;;;;5050983;28;20206;-64
2022/06/26 03:41:14;;;;;;;19.57;12.60;;;16.60;99.90;;;;;;5051056;28;20217;-66
2022/06/26 03:43:41;;;;;;;15.57;11.90;;;16.60;99.90;;;;;;5051254;28;20892;-66
2022/06/26 03:46:07;;;;;;;20.27;13.00;;;16.60;99.90;;;;;;5051435;28;20317;-66
2022/06/26 03:48:35;;;;;;;17.20;12.83;;;16.60;99.90;;;;;;5055151;28;20212;-66
2022/06/26 03:51:02;;;;;;;20.00;12.33;;;16.60;99.90;;;;;;5054764;28;20205;-64
2022/06/26 03:53:31;;;;;;;20.97;14.07;;;16.60;99.90;;;;;;5054967;28;20316;-65
2022/06/26 03:55:58;;;;;;;18.47;13.00;;;16.70;99.90;;;;;;5054229;28;20276;-66
2022/06/26 03:58:25;;;;;;;20.43;13.03;;;16.70;99.90;;;;;;5055088;28;20203;-65
2022/06/26 04:00:52;;;;;;;22.40;15.07;;;16.70;99.90;;;;;;5054919;28;20206;-66
2022/06/26 04:03:19;;;;;;;21.33;14.30;;;16.80;99.90;;;;;;5054760;28;20210;-65
2022/06/26 04:05:46;;;;;;;23.10;15.03;;;16.90;99.90;;;;;;5054519;28;20221;-66
2022/06/26 04:08:12;;;;;;;21.37;14.83;;;16.90;99.90;;;;;;5054379;28;20588;-66
2022/06/26 04:10:41;;;;;;;20.53;13.80;;;17.00;99.90;;;;;;5054466;28;20210;-66
2022/06/26 04:13:09;;;;;;;21.77;13.83;;;17.00;99.90;;;;;;5054361;28;20729;-65
2022/06/26 04:15:38;;;;;;;16.83;12.83;;;17.00;99.90;;;;;;5054506;28;20247;-65
2022/06/26 04:18:05;;;;;;;18.87;12.57;;;17.10;99.90;;;;;;5054054;28;20225;-65
2022/06/26 04:20:33;;;;;;;15.60;11.17;;;17.10;99.90;;;;;;5054460;28;20201;-65
2022/06/26 04:23:01;;;;;;;15.57;10.87;;;17.10;99.90;;;;;;5054251;28;20210;-65
2022/06/26 04:25:29;;;;;;;15.27;10.93;;;17.10;99.90;;;;;;5054489;28;20283;-65
2022/06/26 04:27:57;;;;;;;11.53;9.83;;;17.10;99.90;;;;;;5053898;28;20225;-66
2022/06/26 04:30:25;;;;;;;16.00;10.57;;;17.20;99.90;;;;;;5054100;28;20213;-65
2022/06/26 04:32:52;;;;;;;13.23;10.13;;;17.20;99.90;;;;;;5054505;28;20260;-66
2022/06/26 04:35:18;;;;;;;12.50;9.23;;;17.30;99.90;;;;;;5053973;28;20209;-65
2022/06/26 04:37:46;;;;;;;12.87;9.17;;;17.30;99.90;;;;;;5053843;28;20283;-66
2022/06/26 04:40:14;;;;;;;14.20;8.90;;;17.40;99.90;;;;;;5054093;28;20301;-66
2022/06/26 04:42:42;;;;;;;12.07;8.40;;;17.40;99.90;;;;;;5054196;28;20205;-65
2022/06/26 04:45:11;;;;;;;12.20;9.10;;;17.40;99.90;;;;;;5053510;28;20222;-64
2022/06/26 04:47:38;;;;;;;13.63;8.17;;;17.50;99.90;;;;;;5053034;28;20225;-66
2022/06/26 04:50:06;;;;;;;9.60;7.80;;;17.50;99.90;;;;;;5053236;28;20205;-65
2022/06/26 04:52:33;;;;;;;10.87;8.17;;;17.50;99.90;;;;;;5053502;28;20679;-65
2022/06/26 04:54:59;;;;;;;11.23;8.20;;;17.50;99.90;;;;;;5054074;28;20214;-65
2022/06/26 04:57:26;;;;;;;11.10;7.23;;;17.50;99.90;;;;;;5052530;28;20229;-65
2022/06/26 04:59:53;;;;;;;10.80;7.37;;;17.60;99.90;;;;;;5053596;28;20213;-64
2022/06/26 05:02:21;;;;;;;9.47;7.10;;;17.60;99.90;;;;;;5053746;28;20292;-65
2022/06/26 05:04:48;;;;;;;8.83;7.60;;;17.60;99.90;;;;;;5053474;28;20263;-65
2022/06/26 05:07:15;;;;;;;10.07;6.97;;;17.70;99.90;;;;;;5053375;28;20240;-65
2022/06/26 05:09:42;;;;;;;11.03;7.80;;;17.90;99.90;;;;;;5054132;28;20296;-65
2022/06/26 05:12:08;;;;;;;9.37;7.20;;;18.10;99.90;;;;;;5053565;28;20272;-65
2022/06/26 05:14:35;;;;;;;8.57;7.10;;;18.20;99.90;;;;;;5053220;28;20671;-66
2022/06/26 05:17:02;;;;;;;9.93;6.70;;;18.20;99.90;;;;;;5053050;28;20267;-65
2022/06/26 05:19:30;;;;;;;8.00;6.03;;;18.40;99.90;;;;;;5053114;28;20864;-65
2022/06/26 05:21:56;;;;;;;11.23;7.00;;;18.40;99.90;;;;;;5053393;28;20263;-65
2022/06/26 05:24:23;;;;;;;10.90;6.77;;;18.50;99.90;;;;;;5053338;28;20259;-65
2022/06/26 05:26:50;;;;;;;10.80;7.00;;;18.40;99.90;;;;;;5052481;28;20279;-65
2022/06/26 05:29:17;;;;;;;10.30;7.73;;;18.40;99.90;;;;;;5053087;28;20214;-65
2022/06/26 05:31:43;;;;;;;11.70;7.30;;;18.20;99.90;;;;;;5052819;28;20259;-65
2022/06/26 05:34:10;;;;;;;9.70;7.47;;;18.20;99.90;;;;;;5052871;28;20271;-65
2022/06/26 05:36:38;;;;;;;10.70;7.80;;;18.20;99.90;;;;;;5052309;28;20222;-65
2022/06/26 05:39:05;;;;;;;11.43;8.10;;;18.10;99.90;;;;;;5052912;28;20259;-66
2022/06/26 05:41:31;;;;;;;10.80;8.00;;;18.00;99.90;;;;;;5052566;28;20684;-66
2022/06/26 05:43:58;;;;;;;9.50;7.20;;;17.90;99.90;;;;;;5052887;28;20206;-65
2022/06/26 05:46:25;;;;;;;8.23;7.13;;;17.90;99.90;;;;;;5052136;28;20237;-65
2022/06/26 05:48:51;;;;;;;9.50;7.70;;;17.90;99.90;;;;;;5052822;28;20580;-66
2022/06/26 05:51:18;;;;;;;8.57;6.27;;;17.80;99.90;;;;;;5052861;28;20232;-64
2022/06/26 05:53:47;;;;;;;7.77;5.97;;;17.90;99.90;;;;;;5052640;28;20230;-66
2022/06/26 05:56:14;;;;;;;7.60;5.87;;;17.80;99.90;;;;;;5052131;28;20313;-65
2022/06/26 05:58:40;;;;;;;6.10;4.73;;;17.90;99.90;;;;;;5052379;28;20206;-64
2022/06/26 06:01:07;;;;;;;5.83;4.63;;;17.80;99.90;;;;;;5052477;28;20205;-65
2022/06/26 06:03:34;;;;;;;5.23;4.73;;;17.90;99.90;;;;;;5052446;28;20594;-65
2022/06/26 06:06:00;;;;;;;6.10;4.63;;;18.00;99.90;;;;;;5052053;28;20260;-65
2022/06/26 06:08:28;;;;;;;6.40;4.17;;;18.10;99.90;;;;;;5052661;28;20210;-65
2022/06/26 06:10:56;;;;;;;7.33;4.30;;;18.10;99.90;;;;;;5052066;28;20201;-66
2022/06/26 06:13:22;;;;;;;7.57;4.50;;;18.00;99.90;;;;;;5052664;28;20213;-66
2022/06/26 06:15:49;;;;;;;6.00;4.30;;;18.10;99.90;;;;;;5052019;28;20256;-66
2022/06/26 06:18:16;;;;;;;7.00;5.13;;;18.10;99.90;;;;;;5052082;28;20221;-67
2022/06/26 06:20:45;;;;;;;5.87;4.37;;;18.00;99.90;;;;;;5052374;28;20202;-67
2022/06/26 06:23:12;;;;;;;8.20;5.27;;;18.00;99.90;;;;;;5052224;28;20301;-66
2022/06/26 06:25:39;;;;;;;9.90;5.60;;;18.00;99.90;;;;;;5052052;28;20899;-67
2022/06/26 06:28:07;;;;;;;8.33;6.03;;;18.00;99.90;;;;;;5051340;28;20205;-66
2022/06/26 06:30:34;;;;;;;7.27;6.43;;;18.00;99.90;;;;;;5051999;28;20690;-66
2022/06/26 06:33:00;;;;;;;10.80;6.57;;;18.00;99.90;;;;;;5052047;28;20206;-66
2022/06/26 06:35:27;;;;;;;9.27;6.57;;;18.00;99.90;;;;;;5052028;28;20209;-66
2022/06/26 06:37:54;;;;;;;7.97;5.97;;;18.00;99.90;;;;;;5051445;28;20647;-66
2022/06/26 06:40:20;;;;;;;8.33;6.40;;;18.10;99.90;;;;;;5051862;28;20264;-66
2022/06/26 06:42:47;;;;;;;9.50;7.40;;;18.10;99.90;;;;;;5051702;28;20255;-64
2022/06/26 06:45:15;;;;;;;6.63;5.43;;;18.20;99.90;;;;;;5051940;28;20233;-66
2022/06/26 06:47:42;;;;;;;4.17;3.30;;;18.30;99.90;;;;;;5051501;28;20283;-66
2022/06/26 06:50:10;;;;;;;6.27;3.50;;;18.40;99.90;;;;;;5051536;28;20672;-67
2022/06/26 06:52:36;;;;;;;3.57;3.13;;;18.50;99.90;;;;;;5051763;28;20214;-67
2022/06/26 06:55:03;;;;;;;6.37;5.20;;;18.50;99.90;;;;;;5051595;28;20672;-66
2022/06/26 06:57:30;;;;;;;7.67;5.77;;;18.50;99.90;;;;;;5051217;28;20308;-67
2022/06/26 06:59:57;;;;;;;8.37;6.47;;;18.50;99.90;;;;;;5051854;28;20638;-67
2022/06/26 07:02:26;;;;;;;8.53;6.27;;;18.40;99.90;;;;;;5051935;28;20267;-67
2022/06/26 07:04:52;;;;;;;7.87;7.07;;;18.60;99.90;;;;;;5051732;28;20209;-67
2022/06/26 07:07:19;;;;;;;8.40;7.40;;;18.60;99.90;;;;;;5051093;28;20234;-67
2022/06/26 07:09:46;;;;;;;8.87;7.40;;;18.70;99.90;;;;;;5051491;28;20270;-65
2022/06/26 07:12:12;;;;;;;11.13;7.73;;;18.90;99.90;;;;;;5051584;28;20272;-66
2022/06/26 07:14:39;;;;;;;11.57;6.00;;;19.10;99.90;;;;;;5051777;28;20205;-65
2022/06/26 07:17:08;;;;;;;6.13;5.50;;;19.20;99.90;;;;;;5051263;28;20237;-64
2022/06/26 07:19:36;;;;;;;7.30;4.70;;;19.10;99.90;;;;;;5051646;28;20209;-64
2022/06/26 07:22:03;;;;;;;5.77;4.53;;;19.00;99.90;;;;;;5053774;28;20209;-65
2022/06/26 07:24:30;;;;;;;3.53;3.20;;;19.00;99.90;;;;;;5055719;28;20205;-65
2022/06/26 07:26:57;;;;;;;3.60;3.00;;;19.20;99.90;;;;;;5055304;28;20229;-63
2022/06/26 07:29:23;;;;;;;4.30;1.80;;;19.20;99.90;;;;;;5055339;28;20206;-63
2022/06/26 07:31:50;;;;;;;2.50;1.77;;;19.20;99.90;;;;;;5055554;28;20651;-64
2022/06/26 07:34:17;;;;;;;3.07;1.70;;;19.30;99.90;;;;;;5055378;28;20209;-66
2022/06/26 07:36:46;;;;;;;4.50;1.80;;;19.30;99.90;;;;;;5054727;28;20221;-64
2022/06/26 07:39:15;;;;;;;2.70;1.70;;;19.40;99.90;;;;;;5055026;28;20908;-65
2022/06/26 07:41:42;;;;;;;3.63;2.13;;;19.70;99.90;;;;;;5046255;28;20213;-66
2022/06/26 07:44:09;;;;;;;4.43;2.30;;;19.70;4.50;;;;;;5054531;28;20711;-66
2022/06/26 07:46:36;;;;;;;4.53;2.57;;;19.80;16.40;;;;;;5054308;28;20251;-64
2022/06/26 07:49:04;;;;;;;2.53;2.30;;;20.00;99.90;;;;;;5055126;28;20207;-67
2022/06/26 07:51:31;;;;;;;3.90;2.50;;;20.30;1.00;;;;;;5054466;28;20592;-65
2022/06/26 07:54:00;;;;;;;5.57;3.10;;;20.30;99.90;;;;;;5054244;28;20209;-66
2022/06/26 07:56:27;;;;;;;2.73;2.53;;;19.90;8.50;;;;;;5054685;28;20303;-66
2022/06/26 07:58:54;;;;;;;3.07;2.50;;;19.70;99.90;;;;;;5054901;28;20205;-67
2022/06/26 08:01:20;;;;;;;3.10;2.80;;;19.70;99.90;;;;;;5054564;28;20209;-67
2022/06/26 08:03:47;;;;;;;4.10;3.23;;;19.70;1.00;;;;;;5054371;28;20245;-65
2022/06/26 08:06:14;;;;;;;5.00;3.07;;;19.70;1.00;;;;;;5054082;28;20233;-66
2022/06/26 08:08:42;;;;;;;5.27;3.00;;;19.70;99.90;;;;;;5054152;28;20220;-65
2022/06/26 08:11:10;;;;;;;4.73;2.97;;;19.80;99.90;;;;;;5054533;28;20251;-68
2022/06/26 08:13:36;;;;;;;3.10;2.90;;;19.70;6.30;;;;;;5054399;28;20206;-68
2022/06/26 08:16:03;;;;;;;3.57;2.63;;;19.80;99.90;;;;;;5054102;28;20271;-67
2022/06/26 08:18:30;;;;;;;5.47;3.20;;;19.80;99.90;;;;;;5053841;28;20217;-65
2022/06/26 08:20:56;;;;;;;4.60;2.73;;;20.10;99.90;;;;;;5054242;28;20213;-71
2022/06/26 08:23:23;;;;;;;3.57;3.03;;;20.30;99.90;;;;;;5053682;28;20259;-68
2022/06/26 08:25:50;;;;;;;6.53;3.10;;;20.60;99.90;;;;;;5053941;28;20194;-69
2022/06/26 08:28:18;;;;;;;4.53;2.90;;;20.70;1.00;;;;;;5053788;28;20370;-70
2022/06/26 08:30:44;;;;;;;3.87;3.43;;;20.60;99.90;;;;;;5053706;28;20264;-69
2022/06/26 08:33:11;;;;;;;4.30;3.20;;;20.50;25.20;;;;;;5052270;28;20631;-69
2022/06/26 08:35:38;;;;;;;5.13;2.97;;;20.40;99.90;;;;;;5045413;28;20210;-64
2022/06/26 08:38:04;;;;;;;3.17;2.60;;;20.40;1.00;;;;;;5052717;28;20197;-66
2022/06/26 08:40:32;;;;;;;5.27;3.13;;;20.20;1.00;;;;;;5053723;28;20209;-65
2022/06/26 08:43:02;;;;;;;3.57;2.97;;;20.20;32.00;;;;;;5053571;28;20205;-65
2022/06/26 08:45:31;;;;;;;4.97;2.70;;;20.20;1.00;;;;;;5053546;28;20205;-65
2022/06/26 08:47:59;;;;;;;4.40;2.80;;;20.30;1.00;;;;;;5053070;28;20295;-66
2022/06/26 08:50:27;;;;;;;3.13;2.60;;;20.40;99.90;;;;;;5053652;28;20306;-65
2022/06/26 08:52:53;;;;;;;3.57;2.47;;;20.30;99.90;;;;;;5053639;28;20206;-67
2022/06/26 08:55:21;;;;;;;4.00;2.80;;;20.30;99.90;;;;;;5053252;28;20769;-66
2022/06/26 08:57:48;;;;;;;3.77;2.23;;;20.60;99.90;;;;;;5052281;28;20221;-67
2022/06/26 09:00:16;;;;;;;2.87;2.20;;;20.60;70.70;;;;;;5053315;28;20689;-66
2022/06/26 09:02:44;;;;;;;4.57;2.63;;;20.60;99.90;;;;;;5053926;28;20209;-65
2022/06/26 09:05:12;;;;;;;2.20;1.73;;;20.90;99.90;;;;;;5053367;28;20734;-66
2022/06/26 09:07:46;;;;;;;2.60;1.50;;;21.00;99.90;;;;;;5052845;28;20852;-66
2022/06/26 09:10:16;;;;;;;2.27;1.57;;;21.20;99.90;;;;;;5053573;28;20274;-66
2022/06/26 09:12:43;;;;;;;2.20;1.60;;;21.30;38.00;;;;;;5053179;28;20267;-66
2022/06/26 09:15:16;;;;;;;3.87;1.67;;;21.30;1.00;;;;;;5053534;28;20676;-66
2022/06/26 09:17:55;;;;;;;2.30;1.50;;;21.20;33.80;;;;;;5052927;28;20256;-67
2022/06/26 09:20:22;;;;;;;2.53;1.40;;;20.90;10.70;;;;;;5053453;28;20201;-67
2022/06/26 09:22:52;;;;;;;1.50;1.37;;;20.70;46.70;;;;;;5053167;28;20342;-67
2022/06/26 09:25:19;;;;;;;4.33;1.70;;;20.60;99.90;;;;;;5053254;28;20581;-66
2022/06/26 09:27:46;;;;;;;2.87;1.30;;;20.60;99.90;;;;;;5052488;28;20700;-67
2022/06/26 09:30:12;;;;;;;3.13;1.77;;;20.70;99.90;;;;;;5053259;28;20206;-67
2022/06/26 09:32:40;;;;;;;3.17;1.20;;;20.70;99.90;;;;;;5053182;28;20236;-66
2022/06/26 09:35:09;;;;;;;3.63;1.50;;;20.60;99.90;;;;;;5052938;28;20206;-67
2022/06/26 09:37:38;;;;;;;2.60;1.30;;;20.50;99.90;;;;;;5052398;28;20226;-67
2022/06/26 09:40:05;;;;;;;1.83;1.47;;;20.70;99.90;;;;;;5052908;28;20208;-68
2022/06/26 09:42:33;;;;;;;2.67;1.40;;;20.40;1.00;;;;;;5052985;28;20205;-67
2022/06/26 09:45:01;;;;;;;2.80;1.30;;;20.50;99.90;;;;;;5052369;28;20209;-67
2022/06/26 09:47:29;;;;;;;2.20;1.30;;;20.80;94.80;;;;;;5052316;28;20711;-67
2022/06/26 09:49:58;;;;;;;1.33;1.10;;;20.80;1.00;;;;;;5052492;28;20691;-67
2022/06/26 09:52:28;;;;;;;2.97;1.43;;;21.00;10.80;;;;;;5052472;28;20228;-67
2022/06/26 09:54:56;;;;;;;3.43;1.47;;;21.00;1.00;;;;;;5053126;28;20251;-67
2022/06/26 09:57:25;;;;;;;1.77;1.40;;;21.10;3.80;;;;;;5052437;28;20221;-67
2022/06/26 09:59:52;;;;;;;3.87;1.40;;;21.20;1.00;;;;;;5052820;28;20205;-67
2022/06/26 10:07:54;;;;;;;3.97;1.37;;;20.90;1.00;;;;;;5051770;28;20653;-66
2022/06/26 10:10:22;;;;;;;2.57;1.10;;;21.00;1.00;;;;;;5052364;28;20214;-67
2022/06/26 10:12:54;;;;;;;3.73;1.10;;;20.90;1.00;;;;;;5045072;28;20255;-66
2022/06/26 10:15:24;;;;;;;3.00;1.33;;;21.10;1.00;;;;;;5051528;28;20213;-68
2022/06/26 10:18:23;;;;;;;2.30;1.30;;;21.20;1.00;;;;;;5052609;28;20291;-65
2022/06/26 10:20:50;;;;;;;3.00;1.10;;;21.10;5.50;;;;;;5052797;28;20267;-66
2022/06/26 10:23:33;;;;;;;1.63;1.10;;;21.30;1.00;;;;;;5052032;28;20209;-67
2022/06/26 10:26:11;;;;;;;1.60;1.27;;;21.50;1.00;;;;;;5050878;28;20222;-66
2022/06/26 10:28:38;;;;;;;2.53;1.33;;;21.80;1.00;;;;;;5051915;28;20271;-66
2022/06/26 10:31:07;;;;;;;1.10;1.00;;;21.70;1.00;;;;;;5051497;28;20206;-65
2022/06/26 10:33:34;;;;;;;2.70;1.60;;;21.90;1.00;;;;;;5051872;28;20201;-65
2022/06/26 10:36:01;;;;;;;3.07;1.57;;;22.00;1.00;;;;;;5051011;28;20793;-66
2022/06/26 10:38:29;;;;;;;1.83;1.20;;;21.90;1.00;;;;;;5052175;28;20623;-66
2022/06/26 10:44:01;;;;;;;4.50;1.33;;;21.80;1.00;;;;;;5051523;28;20244;-65
2022/06/26 10:46:36;;;;;;;1.50;1.00;;;21.80;1.00;;;;;;5051022;28;20308;-67
2022/06/26 10:49:07;;;;;;;2.33;1.20;;;21.40;11.00;;;;;;5051530;28;20603;-68
2022/06/26 10:51:34;;;;;;;2.20;1.07;;;21.30;10.30;;;;;;5051573;28;20292;-66
2022/06/26 10:54:02;;;;;;;2.63;1.37;;;21.20;52.20;;;;;;5051137;28;20232;-67
2022/06/26 10:56:31;;;;;;;2.80;1.40;;;21.10;99.90;;;;;;5050476;28;20230;-64
2022/06/26 10:59:02;;;;;;;3.10;1.43;;;20.90;99.90;;;;;;5050853;28;20698;-68
2022/06/26 11:01:29;;;;;;;4.30;1.30;;;20.70;99.90;;;;;;5051299;28;20217;-66
2022/06/26 11:03:57;;;;;;;3.80;1.67;;;20.70;99.90;;;;;;5051329;28;20675;-64
2022/06/26 11:06:27;;;;;;;2.97;1.53;;;20.70;99.90;;;;;;5050540;28;20230;-68
2022/06/26 11:08:56;;;;;;;1.70;1.33;;;20.90;99.90;;;;;;5051309;28;20356;-66
2022/06/26 11:11:28;;;;;;;1.57;1.20;;;20.90;99.90;;;;;;5050775;28;20679;-66
2022/06/26 11:13:58;;;;;;;1.63;1.37;;;20.80;99.90;;;;;;5051663;28;20209;-65
2022/06/26 11:16:32;;;;;;;2.20;1.30;;;20.80;36.70;;;;;;5050520;28;20690;-66
2022/06/26 11:19:00;;;;;;;3.47;1.50;;;21.00;99.90;;;;;;5050980;28;20210;-67
2022/06/26 11:21:28;;;;;;;1.73;1.33;;;21.30;99.90;;;;;;5050983;28;20672;-66
2022/06/26 11:23:55;;;;;;;2.70;1.37;;;21.50;26.60;;;;;;5050773;28;20210;-67
2022/06/26 11:26:22;;;;;;;2.10;1.40;;;21.50;93.80;;;;;;5050876;28;20226;-67
2022/06/26 11:28:58;;;;;;;2.70;1.33;;;21.60;28.40;;;;;;5051063;28;20229;-64
2022/06/26 11:31:26;;;;;;;2.63;1.50;;;21.80;54.50;;;;;;5051127;28;20212;-64
2022/06/26 11:33:53;;;;;;;2.70;1.37;;;22.00;1.00;;;;;;5050807;28;20684;-65
2022/06/26 11:36:22;;;;;;;2.10;1.37;;;21.90;1.00;;;;;;5050157;28;20225;-65
2022/06/26 11:38:52;;;;;;;3.00;1.70;;;22.00;1.00;;;;;;5051171;28;20297;-64
2022/06/26 11:41:20;;;;;;;4.33;1.80;;;22.40;1.00;;;;;;5050613;28;20297;-64
2022/06/26 11:43:49;;;;;;;1.77;1.20;;;22.50;1.00;;;;;;5051059;28;20267;-64
2022/06/26 11:46:17;;;;;;;2.23;1.50;;;22.70;1.00;;;;;;5050196;28;20245;-64
2022/06/26 11:48:44;;;;;;;1.83;1.40;;;22.80;1.00;;;;;;5050789;28;20218;-64
2022/06/26 11:51:12;;;;;;;5.57;1.40;;;22.80;1.00;;;;;;5050661;28;20206;-63
2022/06/26 11:53:42;;;;;;;3.47;1.80;;;22.80;1.00;;;;;;5050948;28;20206;-64
2022/06/26 11:56:09;;;;;;;3.73;1.70;;;22.80;1.00;;;;;;5049944;28;20222;-64
2022/06/26 11:58:36;;;;;;;1.90;1.40;;;22.70;1.00;;;;;;5050679;28;20198;-64
2022/06/26 12:01:05;;;;;;;3.90;1.57;;;22.70;1.00;;;;;;5050747;28;20210;-64
2022/06/26 12:03:33;;;;;;;6.57;1.80;;;22.80;1.00;;;;;;5050395;28;20260;-64
2022/06/26 12:06:00;;;;;;;2.43;1.40;;;22.80;1.00;;;;;;5050042;28;20225;-64
2022/06/26 12:08:29;;;;;;;2.73;1.40;;;22.90;1.00;;;;;;5053393;28;20651;-65
2022/06/26 12:10:56;;;;;;;4.00;1.50;;;23.00;1.00;;;;;;5054157;28;20680;-64
2022/06/26 12:13:25;;;;;;;2.27;1.40;;;23.10;99.90;;;;;;5054075;28;20202;-65
2022/06/26 12:15:52;;;;;;;1.57;1.33;;;23.00;99.90;;;;;;5053514;28;20232;-64
2022/06/26 12:18:19;;;;;;;2.13;1.50;;;22.70;99.90;;;;;;5053769;28;20213;-65
2022/06/26 12:20:51;;;;;;;4.80;1.50;;;22.80;99.90;;;;;;5054291;28;20589;-64
2022/06/26 12:23:18;;;;;;;2.57;1.40;;;22.60;99.90;;;;;;5054150;28;20217;-64
2022/06/26 12:25:49;;;;;;;2.07;1.30;;;22.50;99.90;;;;;;5053770;28;20232;-64
2022/06/26 12:28:22;;;;;;;5.63;2.37;;;22.20;99.90;;;;;;5053822;28;20256;-63
2022/06/26 12:30:49;;;;;;;3.77;1.40;;;22.40;99.90;;;;;;5054624;28;20622;-64
2022/06/26 12:33:16;;;;;;;2.70;1.20;;;22.40;1.00;;;;;;5053578;28;20698;-64
2022/06/26 12:35:42;;;;;;;1.83;1.30;;;22.50;99.90;;;;;;5053816;28;20253;-64
2022/06/26 12:38:10;;;;;;;4.53;1.17;;;22.10;99.90;;;;;;5053271;28;20742;-64
2022/06/26 12:40:37;;;;;;;1.87;1.20;;;21.90;99.90;;;;;;5053656;28;20271;-64
2022/06/26 12:43:04;;;;;;;2.17;1.20;;;21.80;99.90;;;;;;5053544;28;20205;-63
2022/06/26 12:45:31;;;;;;;2.97;1.40;;;21.40;99.90;;;;;;5053254;28;20213;-63
2022/06/26 12:47:58;;;;;;;2.73;1.60;;;21.40;1.00;;;;;;5053270;28;20332;-63
2022/06/26 12:50:25;;;;;;;2.00;1.10;;;21.20;1.00;;;;;;5053544;28;20256;-64
2022/06/26 12:52:51;;;;;;;2.20;1.50;;;21.30;1.00;;;;;;5053636;28;20217;-64
2022/06/26 12:55:19;;;;;;;2.67;1.53;;;21.40;1.00;;;;;;5053236;28;20218;-64
2022/06/26 12:57:46;;;;;;;4.03;1.50;;;21.50;11.10;;;;;;5052394;28;20226;-63